sensor_id;sensor_type;location;lat;lon;timestamp;P1;durP1;ratioP1;P2;durP2;ratioP2
13879;SDS011;7010;48.200;16.332;2022-08-18T00:01:08;3.15;;;2.95;;
13879;SDS011;7010;48.200;16.332;2022-08-18T00:03:41;3.63;;;3.35;;
13879;SDS011;7010;48.200;16.332;2022-08-18T00:06:24;9.35;;;3.60;;
13879;SDS011;7010;48.200;16.332;2022-08-18T00:08:55;3.95;;;3.65;;
13879;SDS011;7010;48.200;16.332;2022-08-18T00:11:24;4.43;;;3.38;;
13879;SDS011;7010;48.200;16.332;2022-08-18T00:14:09;4.32;;;3.90;;
13879;SDS011;7010;48.200;16.332;2022-08-18T00:16:48;3.63;;;3.33;;
13879;SDS011;7010;48.200;16.332;2022-08-18T00:19:19;3.40;;;3.10;;
13879;SDS011;7010;48.200;16.332;2022-08-18T00:22:08;3.95;;;3.65;;
13879;SDS011;7010;48.200;16.332;2022-08-18T00:24:41;3.83;;;3.53;;
13879;SDS011;7010;48.200;16.332;2022-08-18T00:27:14;4.35;;;3.55;;
13879;SDS011;7010;48.200;16.332;2022-08-18T00:29:48;4.85;;;3.40;;
13879;SDS011;7010;48.200;16.332;2022-08-18T00:32:18;3.97;;;3.67;;
13879;SDS011;7010;48.200;16.332;2022-08-18T00:34:48;4.65;;;3.40;;
13879;SDS011;7010;48.200;16.332;2022-08-18T00:37:16;3.53;;;3.15;;
13879;SDS011;7010;48.200;16.332;2022-08-18T00:39:45;4.00;;;3.35;;
13879;SDS011;7010;48.200;16.332;2022-08-18T00:42:15;3.58;;;3.28;;
13879;SDS011;7010;48.200;16.332;2022-08-18T00:45:00;3.90;;;3.60;;
13879;SDS011;7010;48.200;16.332;2022-08-18T00:47:30;15.93;;;3.90;;
13879;SDS011;7010;48.200;16.332;2022-08-18T00:50:10;4.18;;;3.67;;
13879;SDS011;7010;48.200;16.332;2022-08-18T00:52:42;4.70;;;4.30;;
13879;SDS011;7010;48.200;16.332;2022-08-18T00:55:16;5.15;;;3.85;;
13879;SDS011;7010;48.200;16.332;2022-08-18T00:57:47;4.05;;;3.58;;
13879;SDS011;7010;48.200;16.332;2022-08-18T01:00:21;3.45;;;3.15;;
13879;SDS011;7010;48.200;16.332;2022-08-18T01:02:51;3.90;;;3.58;;
13879;SDS011;7010;48.200;16.332;2022-08-18T01:05:24;3.88;;;3.47;;
13879;SDS011;7010;48.200;16.332;2022-08-18T01:07:57;2.55;;;2.35;;
13879;SDS011;7010;48.200;16.332;2022-08-18T01:10:25;4.10;;;3.70;;
13879;SDS011;7010;48.200;16.332;2022-08-18T01:12:54;6.38;;;4.20;;
13879;SDS011;7010;48.200;16.332;2022-08-18T01:15:26;3.05;;;2.85;;
13879;SDS011;7010;48.200;16.332;2022-08-18T01:17:56;5.30;;;4.38;;
13879;SDS011;7010;48.200;16.332;2022-08-18T01:20:46;3.58;;;3.30;;
13879;SDS011;7010;48.200;16.332;2022-08-18T01:23:52;4.72;;;3.72;;
13879;SDS011;7010;48.200;16.332;2022-08-18T01:26:21;4.35;;;3.95;;
13879;SDS011;7010;48.200;16.332;2022-08-18T01:28:51;6.78;;;3.75;;
13879;SDS011;7010;48.200;16.332;2022-08-18T01:31:30;4.22;;;3.78;;
13879;SDS011;7010;48.200;16.332;2022-08-18T01:34:03;3.65;;;3.35;;
13879;SDS011;7010;48.200;16.332;2022-08-18T01:36:33;3.58;;;3.28;;
13879;SDS011;7010;48.200;16.332;2022-08-18T01:39:05;3.60;;;3.30;;
13879;SDS011;7010;48.200;16.332;2022-08-18T01:41:36;3.45;;;3.13;;
13879;SDS011;7010;48.200;16.332;2022-08-18T01:44:06;4.63;;;3.97;;
13879;SDS011;7010;48.200;16.332;2022-08-18T01:46:37;3.85;;;3.40;;
13879;SDS011;7010;48.200;16.332;2022-08-18T01:49:08;5.72;;;3.20;;
13879;SDS011;7010;48.200;16.332;2022-08-18T01:51:38;5.28;;;3.63;;
13879;SDS011;7010;48.200;16.332;2022-08-18T01:54:11;4.43;;;3.90;;
13879;SDS011;7010;48.200;16.332;2022-08-18T01:56:41;4.80;;;4.07;;
13879;SDS011;7010;48.200;16.332;2022-08-18T01:59:09;10.95;;;4.20;;
13879;SDS011;7010;48.200;16.332;2022-08-18T02:01:41;4.45;;;3.78;;
13879;SDS011;7010;48.200;16.332;2022-08-18T02:04:16;3.72;;;3.42;;
13879;SDS011;7010;48.200;16.332;2022-08-18T02:07:04;3.97;;;3.58;;
13879;SDS011;7010;48.200;16.332;2022-08-18T02:09:36;4.20;;;3.78;;
13879;SDS011;7010;48.200;16.332;2022-08-18T02:12:06;4.40;;;3.90;;
13879;SDS011;7010;48.200;16.332;2022-08-18T02:14:35;3.72;;;3.42;;
13879;SDS011;7010;48.200;16.332;2022-08-18T02:17:05;3.70;;;3.40;;
13879;SDS011;7010;48.200;16.332;2022-08-18T02:19:35;3.58;;;3.22;;
13879;SDS011;7010;48.200;16.332;2022-08-18T02:22:06;4.60;;;4.18;;
13879;SDS011;7010;48.200;16.332;2022-08-18T02:24:37;4.90;;;3.35;;
13879;SDS011;7010;48.200;16.332;2022-08-18T02:27:06;3.67;;;3.30;;
13879;SDS011;7010;48.200;16.332;2022-08-18T02:29:36;6.20;;;3.60;;
13879;SDS011;7010;48.200;16.332;2022-08-18T02:32:04;3.60;;;3.38;;
13879;SDS011;7010;48.200;16.332;2022-08-18T02:34:34;3.67;;;3.40;;
13879;SDS011;7010;48.200;16.332;2022-08-18T02:37:02;3.88;;;3.58;;
13879;SDS011;7010;48.200;16.332;2022-08-18T02:39:32;3.67;;;3.10;;
13879;SDS011;7010;48.200;16.332;2022-08-18T02:42:02;4.15;;;3.75;;
13879;SDS011;7010;48.200;16.332;2022-08-18T02:44:32;3.28;;;3.08;;
13879;SDS011;7010;48.200;16.332;2022-08-18T02:47:01;3.80;;;3.38;;
13879;SDS011;7010;48.200;16.332;2022-08-18T02:49:29;4.47;;;4.07;;
13879;SDS011;7010;48.200;16.332;2022-08-18T02:51:58;4.20;;;3.80;;
13879;SDS011;7010;48.200;16.332;2022-08-18T02:54:26;3.28;;;3.08;;
13879;SDS011;7010;48.200;16.332;2022-08-18T02:56:54;4.05;;;3.50;;
13879;SDS011;7010;48.200;16.332;2022-08-18T02:59:25;4.10;;;3.50;;
13879;SDS011;7010;48.200;16.332;2022-08-18T03:01:58;3.58;;;3.28;;
13879;SDS011;7010;48.200;16.332;2022-08-18T03:04:28;4.80;;;3.42;;
13879;SDS011;7010;48.200;16.332;2022-08-18T03:07:03;4.43;;;3.78;;
13879;SDS011;7010;48.200;16.332;2022-08-18T03:09:33;3.90;;;3.50;;
13879;SDS011;7010;48.200;16.332;2022-08-18T03:12:02;4.05;;;3.15;;
13879;SDS011;7010;48.200;16.332;2022-08-18T03:14:34;5.15;;;3.97;;
13879;SDS011;7010;48.200;16.332;2022-08-18T03:17:03;6.65;;;3.92;;
13879;SDS011;7010;48.200;16.332;2022-08-18T03:19:34;5.45;;;4.95;;
13879;SDS011;7010;48.200;16.332;2022-08-18T03:22:03;3.75;;;3.20;;
13879;SDS011;7010;48.200;16.332;2022-08-18T03:24:54;4.20;;;3.72;;
13879;SDS011;7010;48.200;16.332;2022-08-18T03:27:22;6.28;;;3.75;;
13879;SDS011;7010;48.200;16.332;2022-08-18T03:29:52;4.57;;;3.97;;
13879;SDS011;7010;48.200;16.332;2022-08-18T03:32:20;4.40;;;4.00;;
13879;SDS011;7010;48.200;16.332;2022-08-18T03:34:48;4.18;;;3.83;;
13879;SDS011;7010;48.200;16.332;2022-08-18T03:37:17;3.92;;;3.63;;
13879;SDS011;7010;48.200;16.332;2022-08-18T03:39:46;4.97;;;4.47;;
13879;SDS011;7010;48.200;16.332;2022-08-18T03:42:17;3.85;;;3.55;;
13879;SDS011;7010;48.200;16.332;2022-08-18T03:44:45;3.40;;;3.08;;
13879;SDS011;7010;48.200;16.332;2022-08-18T03:47:15;3.83;;;3.53;;
13879;SDS011;7010;48.200;16.332;2022-08-18T03:49:43;4.90;;;3.83;;
13879;SDS011;7010;48.200;16.332;2022-08-18T03:52:12;3.90;;;3.60;;
13879;SDS011;7010;48.200;16.332;2022-08-18T03:54:40;4.28;;;3.88;;
13879;SDS011;7010;48.200;16.332;2022-08-18T03:57:09;3.83;;;3.58;;
13879;SDS011;7010;48.200;16.332;2022-08-18T03:59:39;4.25;;;3.95;;
13879;SDS011;7010;48.200;16.332;2022-08-18T04:02:08;3.78;;;3.55;;
13879;SDS011;7010;48.200;16.332;2022-08-18T04:04:39;5.10;;;4.35;;
13879;SDS011;7010;48.200;16.332;2022-08-18T04:07:08;3.83;;;3.53;;
13879;SDS011;7010;48.200;16.332;2022-08-18T04:09:42;6.30;;;4.35;;
13879;SDS011;7010;48.200;16.332;2022-08-18T04:12:12;3.92;;;3.63;;
13879;SDS011;7010;48.200;16.332;2022-08-18T04:14:43;4.03;;;3.63;;
13879;SDS011;7010;48.200;16.332;2022-08-18T04:17:15;4.38;;;4.00;;
13879;SDS011;7010;48.200;16.332;2022-08-18T04:19:51;4.05;;;3.67;;
13879;SDS011;7010;48.200;16.332;2022-08-18T04:22:20;3.55;;;3.25;;
13879;SDS011;7010;48.200;16.332;2022-08-18T04:24:49;3.58;;;3.38;;
13879;SDS011;7010;48.200;16.332;2022-08-18T04:27:18;5.88;;;4.00;;
13879;SDS011;7010;48.200;16.332;2022-08-18T04:29:47;4.25;;;3.85;;
13879;SDS011;7010;48.200;16.332;2022-08-18T04:32:15;4.32;;;3.75;;
13879;SDS011;7010;48.200;16.332;2022-08-18T04:34:44;4.88;;;4.35;;
13879;SDS011;7010;48.200;16.332;2022-08-18T04:37:14;4.05;;;3.70;;
13879;SDS011;7010;48.200;16.332;2022-08-18T04:39:43;5.15;;;4.50;;
13879;SDS011;7010;48.200;16.332;2022-08-18T04:42:12;4.63;;;4.22;;
13879;SDS011;7010;48.200;16.332;2022-08-18T04:44:40;3.75;;;3.45;;
13879;SDS011;7010;48.200;16.332;2022-08-18T04:47:09;4.45;;;4.10;;
13879;SDS011;7010;48.200;16.332;2022-08-18T04:49:38;4.85;;;4.22;;
13879;SDS011;7010;48.200;16.332;2022-08-18T04:52:09;4.93;;;4.43;;
13879;SDS011;7010;48.200;16.332;2022-08-18T04:55:08;4.82;;;4.43;;
13879;SDS011;7010;48.200;16.332;2022-08-18T04:57:37;7.07;;;4.22;;
13879;SDS011;7010;48.200;16.332;2022-08-18T05:00:08;4.55;;;4.15;;
13879;SDS011;7010;48.200;16.332;2022-08-18T05:02:38;5.45;;;4.70;;
13879;SDS011;7010;48.200;16.332;2022-08-18T05:05:07;4.82;;;4.43;;
13879;SDS011;7010;48.200;16.332;2022-08-18T05:07:41;4.43;;;4.05;;
13879;SDS011;7010;48.200;16.332;2022-08-18T05:10:13;4.47;;;4.07;;
13879;SDS011;7010;48.200;16.332;2022-08-18T05:12:45;4.55;;;4.13;;
13879;SDS011;7010;48.200;16.332;2022-08-18T05:15:14;6.50;;;4.47;;
13879;SDS011;7010;48.200;16.332;2022-08-18T05:17:43;4.43;;;4.05;;
13879;SDS011;7010;48.200;16.332;2022-08-18T05:20:16;4.47;;;4.07;;
13879;SDS011;7010;48.200;16.332;2022-08-18T05:22:44;5.43;;;4.35;;
13879;SDS011;7010;48.200;16.332;2022-08-18T05:25:14;6.65;;;4.38;;
13879;SDS011;7010;48.200;16.332;2022-08-18T05:27:43;5.72;;;4.95;;
13879;SDS011;7010;48.200;16.332;2022-08-18T05:30:11;5.05;;;4.55;;
13879;SDS011;7010;48.200;16.332;2022-08-18T05:32:41;5.38;;;4.78;;
13879;SDS011;7010;48.200;16.332;2022-08-18T05:35:17;4.78;;;4.25;;
13879;SDS011;7010;48.200;16.332;2022-08-18T05:37:52;5.43;;;4.22;;
13879;SDS011;7010;48.200;16.332;2022-08-18T05:40:35;5.97;;;4.40;;
13879;SDS011;7010;48.200;16.332;2022-08-18T05:43:04;4.63;;;4.18;;
13879;SDS011;7010;48.200;16.332;2022-08-18T05:45:34;4.38;;;4.07;;
13879;SDS011;7010;48.200;16.332;2022-08-18T05:48:03;3.97;;;3.67;;
13879;SDS011;7010;48.200;16.332;2022-08-18T05:50:33;4.88;;;4.38;;
13879;SDS011;7010;48.200;16.332;2022-08-18T05:53:05;4.00;;;3.58;;
13879;SDS011;7010;48.200;16.332;2022-08-18T05:55:43;7.47;;;4.47;;
13879;SDS011;7010;48.200;16.332;2022-08-18T05:58:32;4.57;;;3.80;;
13879;SDS011;7010;48.200;16.332;2022-08-18T06:01:09;4.03;;;3.70;;
13879;SDS011;7010;48.200;16.332;2022-08-18T06:03:41;5.25;;;4.75;;
13879;SDS011;7010;48.200;16.332;2022-08-18T06:06:15;5.00;;;4.25;;
13879;SDS011;7010;48.200;16.332;2022-08-18T06:08:49;5.82;;;4.75;;
13879;SDS011;7010;48.200;16.332;2022-08-18T06:11:34;6.90;;;4.43;;
13879;SDS011;7010;48.200;16.332;2022-08-18T06:14:02;4.60;;;4.20;;
13879;SDS011;7010;48.200;16.332;2022-08-18T06:16:35;5.40;;;4.53;;
13879;SDS011;7010;48.200;16.332;2022-08-18T06:19:21;5.43;;;4.72;;
13879;SDS011;7010;48.200;16.332;2022-08-18T06:22:02;4.75;;;3.80;;
13879;SDS011;7010;48.200;16.332;2022-08-18T06:24:42;4.50;;;4.10;;
13879;SDS011;7010;48.200;16.332;2022-08-18T06:27:20;4.93;;;4.53;;
13879;SDS011;7010;48.200;16.332;2022-08-18T06:29:58;6.20;;;3.97;;
13879;SDS011;7010;48.200;16.332;2022-08-18T06:32:38;4.45;;;4.05;;
13879;SDS011;7010;48.200;16.332;2022-08-18T06:35:31;8.65;;;4.45;;
13879;SDS011;7010;48.200;16.332;2022-08-18T06:38:08;9.32;;;4.72;;
13879;SDS011;7010;48.200;16.332;2022-08-18T06:41:03;4.53;;;4.13;;
13879;SDS011;7010;48.200;16.332;2022-08-18T06:43:59;4.40;;;4.10;;
13879;SDS011;7010;48.200;16.332;2022-08-18T06:46:40;4.57;;;4.18;;
13879;SDS011;7010;48.200;16.332;2022-08-18T06:49:30;5.63;;;4.15;;
13879;SDS011;7010;48.200;16.332;2022-08-18T06:52:18;4.50;;;4.05;;
13879;SDS011;7010;48.200;16.332;2022-08-18T06:54:49;4.47;;;3.90;;
13879;SDS011;7010;48.200;16.332;2022-08-18T06:57:22;5.72;;;3.95;;
13879;SDS011;7010;48.200;16.332;2022-08-18T06:59:55;4.72;;;3.83;;
13879;SDS011;7010;48.200;16.332;2022-08-18T07:02:31;7.35;;;4.57;;
13879;SDS011;7010;48.200;16.332;2022-08-18T07:05:22;4.38;;;3.95;;
13879;SDS011;7010;48.200;16.332;2022-08-18T07:08:05;4.75;;;3.80;;
13879;SDS011;7010;48.200;16.332;2022-08-18T07:10:39;4.35;;;3.97;;
13879;SDS011;7010;48.200;16.332;2022-08-18T07:13:18;4.70;;;4.32;;
13879;SDS011;7010;48.200;16.332;2022-08-18T07:15:52;4.32;;;3.92;;
13879;SDS011;7010;48.200;16.332;2022-08-18T07:18:24;3.97;;;3.63;;
13879;SDS011;7010;48.200;16.332;2022-08-18T07:20:54;7.97;;;3.50;;
13879;SDS011;7010;48.200;16.332;2022-08-18T07:23:26;5.10;;;3.90;;
13879;SDS011;7010;48.200;16.332;2022-08-18T07:25:59;6.43;;;3.95;;
13879;SDS011;7010;48.200;16.332;2022-08-18T07:28:31;3.72;;;3.22;;
13879;SDS011;7010;48.200;16.332;2022-08-18T07:31:08;5.68;;;4.20;;
13879;SDS011;7010;48.200;16.332;2022-08-18T07:33:45;4.25;;;3.85;;
13879;SDS011;7010;48.200;16.332;2022-08-18T07:36:17;7.55;;;3.85;;
13879;SDS011;7010;48.200;16.332;2022-08-18T07:38:50;4.00;;;3.70;;
13879;SDS011;7010;48.200;16.332;2022-08-18T07:41:23;2.80;;;2.65;;
13879;SDS011;7010;48.200;16.332;2022-08-18T07:44:04;3.63;;;3.33;;
13879;SDS011;7010;48.200;16.332;2022-08-18T07:46:42;3.72;;;3.38;;
13879;SDS011;7010;48.200;16.332;2022-08-18T07:49:18;7.28;;;4.10;;
13879;SDS011;7010;48.200;16.332;2022-08-18T07:51:50;4.35;;;3.80;;
13879;SDS011;7010;48.200;16.332;2022-08-18T07:54:28;3.35;;;3.05;;
13879;SDS011;7010;48.200;16.332;2022-08-18T07:57:18;3.95;;;3.65;;
13879;SDS011;7010;48.200;16.332;2022-08-18T07:59:56;4.75;;;3.63;;
13879;SDS011;7010;48.200;16.332;2022-08-18T08:02:47;4.00;;;3.70;;
13879;SDS011;7010;48.200;16.332;2022-08-18T08:05:31;3.42;;;3.22;;
13879;SDS011;7010;48.200;16.332;2022-08-18T08:08:09;3.92;;;3.55;;
13879;SDS011;7010;48.200;16.332;2022-08-18T08:10:54;3.60;;;3.30;;
13879;SDS011;7010;48.200;16.332;2022-08-18T08:13:43;3.30;;;3.08;;
13879;SDS011;7010;48.200;16.332;2022-08-18T08:16:24;3.28;;;2.70;;
13879;SDS011;7010;48.200;16.332;2022-08-18T08:19:04;4.00;;;3.63;;
13879;SDS011;7010;48.200;16.332;2022-08-18T08:21:43;3.78;;;3.47;;
13879;SDS011;7010;48.200;16.332;2022-08-18T08:24:19;3.70;;;3.40;;
13879;SDS011;7010;48.200;16.332;2022-08-18T08:26:55;5.35;;;3.25;;
13879;SDS011;7010;48.200;16.332;2022-08-18T08:29:31;9.65;;;3.38;;
13879;SDS011;7010;48.200;16.332;2022-08-18T08:32:13;3.65;;;3.33;;
13879;SDS011;7010;48.200;16.332;2022-08-18T08:34:50;3.50;;;2.75;;
13879;SDS011;7010;48.200;16.332;2022-08-18T08:37:22;3.90;;;3.35;;
13879;SDS011;7010;48.200;16.332;2022-08-18T08:39:58;3.15;;;2.95;;
13879;SDS011;7010;48.200;16.332;2022-08-18T08:42:31;3.20;;;3.00;;
13879;SDS011;7010;48.200;16.332;2022-08-18T08:45:07;3.15;;;2.95;;
13879;SDS011;7010;48.200;16.332;2022-08-18T08:47:39;3.55;;;3.25;;
13879;SDS011;7010;48.200;16.332;2022-08-18T08:50:14;3.40;;;2.97;;
13879;SDS011;7010;48.200;16.332;2022-08-18T08:52:46;3.17;;;2.90;;
13879;SDS011;7010;48.200;16.332;2022-08-18T08:55:23;3.53;;;3.22;;
13879;SDS011;7010;48.200;16.332;2022-08-18T08:57:54;3.72;;;2.95;;
13879;SDS011;7010;48.200;16.332;2022-08-18T09:00:27;3.85;;;3.03;;
13879;SDS011;7010;48.200;16.332;2022-08-18T09:03:05;3.65;;;3.28;;
13879;SDS011;7010;48.200;16.332;2022-08-18T09:05:45;4.70;;;3.15;;
13879;SDS011;7010;48.200;16.332;2022-08-18T09:08:35;4.55;;;3.60;;
13879;SDS011;7010;48.200;16.332;2022-08-18T09:11:23;4.93;;;3.67;;
13879;SDS011;7010;48.200;16.332;2022-08-18T09:14:07;3.22;;;2.95;;
13879;SDS011;7010;48.200;16.332;2022-08-18T09:17:07;6.43;;;3.67;;
13879;SDS011;7010;48.200;16.332;2022-08-18T09:19:50;3.20;;;2.75;;
13879;SDS011;7010;48.200;16.332;2022-08-18T09:22:31;4.10;;;3.80;;
13879;SDS011;7010;48.200;16.332;2022-08-18T09:25:07;4.32;;;3.88;;
13879;SDS011;7010;48.200;16.332;2022-08-18T09:27:41;4.28;;;3.60;;
13879;SDS011;7010;48.200;16.332;2022-08-18T09:30:36;3.55;;;3.25;;
13879;SDS011;7010;48.200;16.332;2022-08-18T09:33:16;4.80;;;3.97;;
13879;SDS011;7010;48.200;16.332;2022-08-18T09:35:54;3.92;;;3.55;;
13879;SDS011;7010;48.200;16.332;2022-08-18T09:38:54;4.18;;;3.88;;
13879;SDS011;7010;48.200;16.332;2022-08-18T09:42:06;3.92;;;3.60;;
13879;SDS011;7010;48.200;16.332;2022-08-18T09:44:58;13.05;;;4.72;;
13879;SDS011;7010;48.200;16.332;2022-08-18T09:47:57;3.47;;;3.28;;
13879;SDS011;7010;48.200;16.332;2022-08-18T09:50:55;3.70;;;3.40;;
13879;SDS011;7010;48.200;16.332;2022-08-18T09:53:31;6.32;;;4.07;;
13879;SDS011;7010;48.200;16.332;2022-08-18T09:56:06;4.55;;;3.97;;
13879;SDS011;7010;48.200;16.332;2022-08-18T09:58:51;3.85;;;3.55;;
13879;SDS011;7010;48.200;16.332;2022-08-18T10:01:31;6.13;;;4.35;;
13879;SDS011;7010;48.200;16.332;2022-08-18T10:10:18;3.80;;;3.55;;
13879;SDS011;7010;48.200;16.332;2022-08-18T10:13:14;4.88;;;3.70;;
13879;SDS011;7010;48.200;16.332;2022-08-18T10:15:56;4.85;;;4.35;;
13879;SDS011;7010;48.200;16.332;2022-08-18T10:18:45;3.85;;;3.55;;
13879;SDS011;7010;48.200;16.332;2022-08-18T10:21:24;7.40;;;4.57;;
13879;SDS011;7010;48.200;16.332;2022-08-18T10:23:57;5.55;;;4.55;;
13879;SDS011;7010;48.200;16.332;2022-08-18T10:26:59;7.18;;;4.63;;
13879;SDS011;7010;48.200;16.332;2022-08-18T10:38:24;5.57;;;4.28;;
13879;SDS011;7010;48.200;16.332;2022-08-18T10:41:07;6.78;;;4.47;;
13879;SDS011;7010;48.200;16.332;2022-08-18T10:43:41;9.32;;;5.18;;
13879;SDS011;7010;48.200;16.332;2022-08-18T10:46:25;5.43;;;4.22;;
13879;SDS011;7010;48.200;16.332;2022-08-18T10:54:55;3.92;;;3.63;;
13879;SDS011;7010;48.200;16.332;2022-08-18T10:57:49;4.68;;;3.95;;
13879;SDS011;7010;48.200;16.332;2022-08-18T11:00:39;3.63;;;3.33;;
13879;SDS011;7010;48.200;16.332;2022-08-18T11:03:24;5.40;;;3.92;;
13879;SDS011;7010;48.200;16.332;2022-08-18T11:06:21;4.05;;;3.75;;
13879;SDS011;7010;48.200;16.332;2022-08-18T11:08:53;4.25;;;3.85;;
13879;SDS011;7010;48.200;16.332;2022-08-18T11:11:24;3.83;;;3.53;;
13879;SDS011;7010;48.200;16.332;2022-08-18T11:14:34;4.35;;;3.95;;
13879;SDS011;7010;48.200;16.332;2022-08-18T11:17:50;21.73;;;3.85;;
13879;SDS011;7010;48.200;16.332;2022-08-18T11:20:31;4.78;;;4.35;;
13879;SDS011;7010;48.200;16.332;2022-08-18T11:23:01;4.07;;;3.67;;
13879;SDS011;7010;48.200;16.332;2022-08-18T11:25:30;4.25;;;3.47;;
13879;SDS011;7010;48.200;16.332;2022-08-18T11:28:01;4.10;;;3.75;;
13879;SDS011;7010;48.200;16.332;2022-08-18T11:30:43;3.38;;;3.17;;
13879;SDS011;7010;48.200;16.332;2022-08-18T11:33:14;3.75;;;3.45;;
13879;SDS011;7010;48.200;16.332;2022-08-18T11:35:52;6.63;;;3.58;;
13879;SDS011;7010;48.200;16.332;2022-08-18T11:38:24;3.60;;;3.30;;
13879;SDS011;7010;48.200;16.332;2022-08-18T11:41:09;6.20;;;3.67;;
13879;SDS011;7010;48.200;16.332;2022-08-18T11:43:44;3.47;;;3.17;;
13879;SDS011;7010;48.200;16.332;2022-08-18T11:46:20;3.92;;;3.40;;
13879;SDS011;7010;48.200;16.332;2022-08-18T11:48:56;4.30;;;2.90;;
13879;SDS011;7010;48.200;16.332;2022-08-18T11:51:28;6.18;;;3.53;;
13879;SDS011;7010;48.200;16.332;2022-08-18T11:53:59;8.05;;;3.08;;
13879;SDS011;7010;48.200;16.332;2022-08-18T11:56:31;4.00;;;3.60;;
13879;SDS011;7010;48.200;16.332;2022-08-18T11:59:04;7.45;;;3.15;;
13879;SDS011;7010;48.200;16.332;2022-08-18T12:01:38;2.85;;;2.65;;
13879;SDS011;7010;48.200;16.332;2022-08-18T12:04:35;3.42;;;3.10;;
13879;SDS011;7010;48.200;16.332;2022-08-18T12:07:08;3.88;;;3.00;;
13879;SDS011;7010;48.200;16.332;2022-08-18T12:09:46;3.53;;;3.22;;
13879;SDS011;7010;48.200;16.332;2022-08-18T12:12:42;4.18;;;3.13;;
13879;SDS011;7010;48.200;16.332;2022-08-18T12:15:25;4.65;;;3.10;;
13879;SDS011;7010;48.200;16.332;2022-08-18T12:18:16;3.85;;;2.85;;
13879;SDS011;7010;48.200;16.332;2022-08-18T12:20:55;3.15;;;2.83;;
13879;SDS011;7010;48.200;16.332;2022-08-18T12:23:26;3.47;;;3.00;;
13879;SDS011;7010;48.200;16.332;2022-08-18T12:26:14;2.85;;;2.65;;
13879;SDS011;7010;48.200;16.332;2022-08-18T12:29:03;3.65;;;3.35;;
13879;SDS011;7010;48.200;16.332;2022-08-18T12:31:36;3.65;;;3.13;;
13879;SDS011;7010;48.200;16.332;2022-08-18T12:34:24;4.60;;;2.92;;
13879;SDS011;7010;48.200;16.332;2022-08-18T12:36:56;4.53;;;2.80;;
13879;SDS011;7010;48.200;16.332;2022-08-18T12:39:27;3.17;;;2.85;;
13879;SDS011;7010;48.200;16.332;2022-08-18T12:41:57;3.42;;;2.78;;
13879;SDS011;7010;48.200;16.332;2022-08-18T12:44:26;3.25;;;2.88;;
13879;SDS011;7010;48.200;16.332;2022-08-18T12:46:55;4.00;;;2.65;;
13879;SDS011;7010;48.200;16.332;2022-08-18T12:49:25;3.50;;;3.13;;
13879;SDS011;7010;48.200;16.332;2022-08-18T12:51:54;6.35;;;3.33;;
13879;SDS011;7010;48.200;16.332;2022-08-18T12:54:23;8.63;;;3.15;;
13879;SDS011;7010;48.200;16.332;2022-08-18T12:56:53;3.45;;;2.88;;
13879;SDS011;7010;48.200;16.332;2022-08-18T12:59:23;2.97;;;2.67;;
13879;SDS011;7010;48.200;16.332;2022-08-18T13:01:57;6.60;;;3.03;;
13879;SDS011;7010;48.200;16.332;2022-08-18T13:04:26;4.13;;;2.85;;
13879;SDS011;7010;48.200;16.332;2022-08-18T13:07:00;4.60;;;2.90;;
13879;SDS011;7010;48.200;16.332;2022-08-18T13:09:32;2.70;;;2.50;;
13879;SDS011;7010;48.200;16.332;2022-08-18T13:12:20;3.03;;;2.83;;
13879;SDS011;7010;48.200;16.332;2022-08-18T13:14:52;4.30;;;2.70;;
13879;SDS011;7010;48.200;16.332;2022-08-18T13:17:23;3.03;;;2.72;;
13879;SDS011;7010;48.200;16.332;2022-08-18T13:19:58;3.00;;;2.50;;
13879;SDS011;7010;48.200;16.332;2022-08-18T13:22:26;2.83;;;2.60;;
13879;SDS011;7010;48.200;16.332;2022-08-18T13:24:58;11.23;;;2.97;;
13879;SDS011;7010;48.200;16.332;2022-08-18T13:27:30;3.05;;;2.75;;
13879;SDS011;7010;48.200;16.332;2022-08-18T13:30:03;3.17;;;2.60;;
13879;SDS011;7010;48.200;16.332;2022-08-18T13:32:54;3.28;;;2.50;;
13879;SDS011;7010;48.200;16.332;2022-08-18T13:35:25;2.97;;;2.50;;
13879;SDS011;7010;48.200;16.332;2022-08-18T13:38:03;3.00;;;2.47;;
13879;SDS011;7010;48.200;16.332;2022-08-18T13:40:42;3.17;;;2.60;;
13879;SDS011;7010;48.200;16.332;2022-08-18T13:43:14;3.20;;;2.55;;
13879;SDS011;7010;48.200;16.332;2022-08-18T13:45:43;5.80;;;3.28;;
13879;SDS011;7010;48.200;16.332;2022-08-18T13:48:21;2.40;;;2.20;;
13879;SDS011;7010;48.200;16.332;2022-08-18T13:50:51;3.20;;;2.75;;
13879;SDS011;7010;48.200;16.332;2022-08-18T13:53:21;2.90;;;2.30;;
13879;SDS011;7010;48.200;16.332;2022-08-18T13:55:51;4.10;;;2.97;;
13879;SDS011;7010;48.200;16.332;2022-08-18T13:58:21;3.15;;;2.50;;
13879;SDS011;7010;48.200;16.332;2022-08-18T14:00:54;3.75;;;2.55;;
13879;SDS011;7010;48.200;16.332;2022-08-18T14:03:45;3.20;;;2.75;;
13879;SDS011;7010;48.200;16.332;2022-08-18T14:06:15;2.72;;;2.47;;
13879;SDS011;7010;48.200;16.332;2022-08-18T14:08:49;2.80;;;2.60;;
13879;SDS011;7010;48.200;16.332;2022-08-18T14:11:18;2.65;;;2.45;;
13879;SDS011;7010;48.200;16.332;2022-08-18T14:13:52;3.75;;;2.50;;
13879;SDS011;7010;48.200;16.332;2022-08-18T14:16:21;3.40;;;2.72;;
13879;SDS011;7010;48.200;16.332;2022-08-18T14:18:52;3.35;;;2.22;;
13879;SDS011;7010;48.200;16.332;2022-08-18T14:21:40;4.32;;;2.83;;
13879;SDS011;7010;48.200;16.332;2022-08-18T14:24:28;4.07;;;2.58;;
13879;SDS011;7010;48.200;16.332;2022-08-18T14:27:14;4.10;;;3.08;;
13879;SDS011;7010;48.200;16.332;2022-08-18T14:29:45;2.67;;;2.40;;
13879;SDS011;7010;48.200;16.332;2022-08-18T14:32:17;2.65;;;2.22;;
13879;SDS011;7010;48.200;16.332;2022-08-18T14:34:54;3.00;;;2.53;;
13879;SDS011;7010;48.200;16.332;2022-08-18T14:37:26;3.42;;;3.13;;
13879;SDS011;7010;48.200;16.332;2022-08-18T14:39:59;11.02;;;3.25;;
13879;SDS011;7010;48.200;16.332;2022-08-18T14:42:27;3.75;;;2.95;;
13879;SDS011;7010;48.200;16.332;2022-08-18T14:45:08;3.28;;;2.80;;
13879;SDS011;7010;48.200;16.332;2022-08-18T14:47:57;3.88;;;2.95;;
13879;SDS011;7010;48.200;16.332;2022-08-18T14:50:25;4.05;;;2.78;;
13879;SDS011;7010;48.200;16.332;2022-08-18T14:52:53;2.88;;;2.60;;
13879;SDS011;7010;48.200;16.332;2022-08-18T14:55:24;2.80;;;2.50;;
13879;SDS011;7010;48.200;16.332;2022-08-18T14:57:55;3.00;;;2.80;;
13879;SDS011;7010;48.200;16.332;2022-08-18T15:00:26;2.90;;;2.58;;
13879;SDS011;7010;48.200;16.332;2022-08-18T15:02:55;2.97;;;2.58;;
13879;SDS011;7010;48.200;16.332;2022-08-18T15:05:25;3.75;;;2.95;;
13879;SDS011;7010;48.200;16.332;2022-08-18T15:07:59;3.13;;;2.80;;
13879;SDS011;7010;48.200;16.332;2022-08-18T15:10:30;4.00;;;2.70;;
13879;SDS011;7010;48.200;16.332;2022-08-18T15:12:58;3.63;;;2.97;;
13879;SDS011;7010;48.200;16.332;2022-08-18T15:15:28;4.03;;;3.45;;
13879;SDS011;7010;48.200;16.332;2022-08-18T15:18:17;8.52;;;3.10;;
13879;SDS011;7010;48.200;16.332;2022-08-18T15:20:48;11.68;;;3.22;;
13879;SDS011;7010;48.200;16.332;2022-08-18T15:23:45;4.20;;;3.30;;
13879;SDS011;7010;48.200;16.332;2022-08-18T15:26:44;4.03;;;2.60;;
13879;SDS011;7010;48.200;16.332;2022-08-18T15:29:17;2.97;;;2.63;;
13879;SDS011;7010;48.200;16.332;2022-08-18T15:31:54;3.97;;;3.15;;
13879;SDS011;7010;48.200;16.332;2022-08-18T15:34:31;5.88;;;3.10;;
13879;SDS011;7010;48.200;16.332;2022-08-18T15:37:12;3.22;;;2.58;;
13879;SDS011;7010;48.200;16.332;2022-08-18T15:39:45;3.20;;;2.92;;
13879;SDS011;7010;48.200;16.332;2022-08-18T15:42:21;2.70;;;2.50;;
13879;SDS011;7010;48.200;16.332;2022-08-18T15:44:50;6.72;;;2.75;;
13879;SDS011;7010;48.200;16.332;2022-08-18T15:47:20;4.65;;;3.08;;
13879;SDS011;7010;48.200;16.332;2022-08-18T15:49:50;3.53;;;3.25;;
13879;SDS011;7010;48.200;16.332;2022-08-18T15:52:20;4.13;;;3.53;;
13879;SDS011;7010;48.200;16.332;2022-08-18T15:54:51;3.38;;;3.08;;
13879;SDS011;7010;48.200;16.332;2022-08-18T15:57:27;4.22;;;3.50;;
13879;SDS011;7010;48.200;16.332;2022-08-18T16:00:05;3.08;;;2.80;;